Time;durP1;ratioP1;P1;durP2;ratioP2;P2;SDS_P1;SDS_P2;PMS_P1;PMS_P2;Temp;Humidity;BMP_temperature;BMP_pressure;BME280_temperature;BME280_humidity;BME280_pressure;Samples;Min_cycle;Max_cycle;Signal;HPM_P1;HPM_P2
2023/01/02 00:01:28;;;;;;;23.73;12.27;;;4.30;99.90;;;;;;5023617;28;20181;-54
2023/01/02 00:03:55;;;;;;;61.10;15.00;;;4.30;99.90;;;;;;5020739;28;20367;-56
2023/01/02 00:06:22;;;;;;;21.80;14.53;;;4.30;99.90;;;;;;5018689;28;20437;-56
2023/01/02 00:08:47;;;;;;;78.90;14.73;;;4.30;99.90;;;;;;5017561;28;20471;-54
2023/01/02 00:11:13;;;;;;;36.47;13.70;;;4.30;99.90;;;;;;5021329;28;21219;-55
2023/01/02 00:13:39;;;;;;;36.67;14.33;;;4.30;99.90;;;;;;5018598;28;20862;-54
2023/01/02 00:16:05;;;;;;;19.17;12.73;;;4.30;99.90;;;;;;5017405;28;20223;-55
2023/01/02 00:18:30;;;;;;;38.90;14.33;;;4.30;99.90;;;;;;5021247;28;20188;-54
2023/01/02 00:21:00;;;;;;;38.40;15.57;;;4.30;99.90;;;;;;5029628;28;20437;-54
2023/01/02 00:23:26;;;;;;;40.80;16.30;;;4.30;99.90;;;;;;5023749;28;20719;-55
2023/01/02 00:25:51;;;;;;;27.93;14.63;;;4.30;99.90;;;;;;5022507;28;20550;-54
2023/01/02 00:28:17;;;;;;;27.93;13.87;;;4.30;99.90;;;;;;5018340;28;20214;-54
2023/01/02 00:30:42;;;;;;;24.40;13.00;;;4.30;99.90;;;;;;5025404;28;20208;-54
2023/01/02 00:33:08;;;;;;;26.07;10.90;;;4.30;99.90;;;;;;5039261;28;20318;-54
2023/01/02 00:35:36;;;;;;;22.73;10.87;;;4.20;99.90;;;;;;5035357;28;20299;-55
2023/01/02 00:38:02;;;;;;;18.07;11.20;;;4.30;99.90;;;;;;5031357;28;20190;-54
2023/01/02 00:40:28;;;;;;;20.87;11.37;;;4.20;99.90;;;;;;5022546;28;20430;-54
2023/01/02 00:42:54;;;;;;;20.10;11.50;;;4.20;99.90;;;;;;5021299;28;20435;-55
2023/01/02 00:45:19;;;;;;;19.80;11.50;;;4.20;99.90;;;;;;5013054;28;20231;-56
2023/01/02 00:47:45;;;;;;;18.17;10.70;;;4.20;99.90;;;;;;5023576;28;20525;-55
2023/01/02 00:50:11;;;;;;;34.80;11.13;;;4.20;99.90;;;;;;5020023;28;20615;-55
2023/01/02 00:52:36;;;;;;;24.80;10.00;;;4.10;99.90;;;;;;5025343;28;20675;-55
2023/01/02 00:55:02;;;;;;;64.17;11.73;;;4.10;99.90;;;;;;5023389;28;20200;-55
2023/01/02 00:57:28;;;;;;;29.23;10.30;;;4.00;99.90;;;;;;5017144;28;20191;-55
2023/01/02 00:59:53;;;;;;;51.43;9.97;;;4.00;99.90;;;;;;5038826;28;20187;-55
2023/01/02 01:02:19;;;;;;;13.37;9.10;;;4.00;99.90;;;;;;5034799;28;20211;-55
2023/01/02 01:04:44;;;;;;;15.60;8.20;;;4.00;99.90;;;;;;5038969;28;20220;-56
2023/01/02 01:07:10;;;;;;;42.33;10.57;;;4.00;99.90;;;;;;5036490;28;20551;-55
2023/01/02 01:09:35;;;;;;;14.57;8.80;;;3.90;99.90;;;;;;5040254;28;20207;-55
2023/01/02 01:12:01;;;;;;;17.47;9.40;;;3.90;99.90;;;;;;5039176;28;20176;-55
2023/01/02 01:14:27;;;;;;;14.17;9.30;;;4.00;99.90;;;;;;5041123;28;20208;-56
2023/01/02 01:16:52;;;;;;;11.70;8.37;;;3.90;99.90;;;;;;5037167;28;20299;-56
2023/01/02 01:19:18;;;;;;;27.07;9.60;;;3.90;99.90;;;;;;5034993;28;20175;-54
2023/01/02 01:21:44;;;;;;;13.10;9.13;;;3.90;99.90;;;;;;5037085;28;20218;-55
2023/01/02 01:24:10;;;;;;;12.80;9.93;;;3.90;99.90;;;;;;5035996;28;20200;-54
2023/01/02 01:26:36;;;;;;;13.20;9.77;;;3.90;99.90;;;;;;5041351;28;20472;-55
2023/01/02 01:29:01;;;;;;;16.77;10.37;;;3.90;99.90;;;;;;5034831;28;20286;-55
2023/01/02 01:31:27;;;;;;;14.97;9.90;;;3.80;99.90;;;;;;5023404;28;20183;-55
2023/01/02 01:33:53;;;;;;;14.50;9.50;;;3.80;99.90;;;;;;5018988;28;20407;-55
2023/01/02 01:36:21;;;;;;;15.77;9.97;;;3.80;99.90;;;;;;5024248;28;20187;-55
2023/01/02 01:38:47;;;;;;;12.53;8.73;;;3.80;99.90;;;;;;5019155;28;20187;-56
2023/01/02 01:41:21;;;;;;;27.00;9.77;;;3.80;99.90;;;;;;5020055;28;20434;-54
2023/01/02 01:43:49;;;;;;;17.77;8.70;;;3.80;99.90;;;;;;5017155;28;20449;-54
2023/01/02 01:46:44;;;;;;;13.10;9.50;;;3.70;99.90;;;;;;5017640;28;20435;-54
2023/01/02 01:49:14;;;;;;;24.23;8.80;;;3.70;99.90;;;;;;5020067;28;21189;-55
2023/01/02 01:52:02;;;;;;;21.00;8.80;;;3.70;99.90;;;;;;5020385;28;20457;-54
2023/01/02 01:54:37;;;;;;;41.30;9.33;;;3.70;99.90;;;;;;5020019;28;20511;-56
2023/01/02 01:57:20;;;;;;;44.43;8.20;;;3.80;99.90;;;;;;5025359;28;20398;-53
2023/01/02 01:59:48;;;;;;;39.60;8.10;;;3.70;99.90;;;;;;5044628;28;20426;-55
2023/01/02 02:02:13;;;;;;;35.63;9.77;;;3.70;99.90;;;;;;5043971;28;20445;-54
2023/01/02 02:04:41;;;;;;;38.93;9.10;;;3.70;99.90;;;;;;5037295;28;20790;-54
2023/01/02 02:07:07;;;;;;;89.87;8.07;;;3.70;99.90;;;;;;5034610;28;20179;-54
2023/01/02 02:09:39;;;;;;;57.53;8.40;;;3.70;99.90;;;;;;5020250;28;20462;-55
2023/01/02 02:12:07;;;;;;;95.70;8.80;;;3.60;99.90;;;;;;5035599;28;20539;-55
2023/01/02 02:14:33;;;;;;;97.73;9.20;;;3.60;99.90;;;;;;5038592;28;20457;-54
2023/01/02 02:17:18;;;;;;;49.90;7.63;;;3.60;99.90;;;;;;5041238;28;20440;-55
2023/01/02 02:20:11;;;;;;;96.47;8.50;;;3.50;99.90;;;;;;5039190;28;20440;-55
2023/01/02 02:22:40;;;;;;;53.03;8.40;;;3.50;99.90;;;;;;5022952;28;20450;-54
2023/01/02 02:25:41;;;;;;;50.37;8.23;;;3.50;99.90;;;;;;5013571;28;20469;-55
2023/01/02 02:28:25;;;;;;;47.03;7.70;;;3.40;99.90;;;;;;5012941;28;20531;-55
2023/01/02 02:31:08;;;;;;;35.77;8.10;;;3.40;99.90;;;;;;5038412;28;20485;-55
2023/01/02 02:33:42;;;;;;;24.43;7.00;;;3.30;99.90;;;;;;5051325;28;20457;-55
2023/01/02 02:36:39;;;;;;;12.60;7.00;;;3.30;99.90;;;;;;5038567;28;20462;-55
2023/01/02 02:39:23;;;;;;;37.53;8.00;;;3.30;99.90;;;;;;5026541;28;20592;-57
2023/01/02 02:42:16;;;;;;;24.47;6.90;;;3.30;99.90;;;;;;5026274;28;20469;-55
2023/01/02 02:47:26;;;;;;;13.77;5.30;;;3.30;99.90;;;;;;5021122;28;20462;-60
2023/01/02 02:50:36;;;;;;;11.13;5.30;;;3.40;99.90;;;;;;5018947;28;20509;-59
2023/01/02 02:53:21;;;;;;;14.20;5.70;;;3.40;99.90;;;;;;4982803;28;20432;-59
2023/01/02 02:55:53;;;;;;;11.60;5.80;;;3.40;99.90;;;;;;4963908;28;20444;-60
2023/01/02 02:58:20;;;;;;;29.17;6.20;;;3.40;99.90;;;;;;5007317;28;20437;-59
2023/01/02 03:00:46;;;;;;;15.30;5.80;;;3.40;99.90;;;;;;5021545;28;20461;-58
2023/01/02 03:03:22;;;;;;;17.40;6.10;;;3.40;99.90;;;;;;5023623;28;20954;-59
2023/01/02 03:06:27;;;;;;;34.73;6.03;;;3.40;99.90;;;;;;5020126;28;20253;-58
2023/01/02 03:09:08;;;;;;;24.73;6.80;;;3.30;99.90;;;;;;4999870;28;20465;-58
2023/01/02 03:12:14;;;;;;;30.67;5.90;;;3.30;99.90;;;;;;5028500;28;20429;-58
2023/01/02 03:15:04;;;;;;;18.83;5.47;;;3.30;99.90;;;;;;5007409;28;20876;-59
2023/01/02 03:17:48;;;;;;;21.60;5.47;;;3.30;99.90;;;;;;5030191;28;20580;-59
2023/01/02 03:20:18;;;;;;;36.90;7.40;;;3.30;99.90;;;;;;5023589;28;20513;-58
2023/01/02 03:22:51;;;;;;;9.40;5.97;;;3.20;99.90;;;;;;5027225;28;20482;-59
2023/01/02 03:25:18;;;;;;;13.77;5.50;;;3.20;99.90;;;;;;5019300;28;20474;-58
2023/01/02 03:27:47;;;;;;;25.37;6.40;;;3.20;99.90;;;;;;5018915;28;20959;-58
2023/01/02 03:30:22;;;;;;;6.43;5.00;;;3.20;99.90;;;;;;5022250;28;20493;-59
2023/01/02 03:32:57;;;;;;;20.10;5.50;;;3.30;99.90;;;;;;5015996;28;20493;-59
2023/01/02 03:35:36;;;;;;;12.63;7.47;;;3.30;99.90;;;;;;5029377;28;20794;-59
2023/01/02 03:38:05;;;;;;;22.27;9.00;;;3.30;99.90;;;;;;5027577;28;20435;-59
2023/01/02 03:40:37;;;;;;;27.47;7.43;;;3.30;99.90;;;;;;5020179;28;20919;-58
2023/01/02 03:43:15;;;;;;;19.33;6.07;;;3.20;99.90;;;;;;5026140;28;20600;-59
2023/01/02 03:45:49;;;;;;;49.60;8.50;;;3.20;99.90;;;;;;5024006;28;20469;-59
2023/01/02 03:48:43;;;;;;;15.77;7.10;;;3.20;99.90;;;;;;5022674;28;20952;-58
2023/01/02 03:51:09;;;;;;;40.90;8.53;;;3.20;99.90;;;;;;5008170;28;20422;-59
2023/01/02 03:53:36;;;;;;;38.53;7.10;;;3.20;99.90;;;;;;5020734;28;20434;-58
2023/01/02 03:56:30;;;;;;;36.53;7.67;;;3.20;99.90;;;;;;5024178;28;20480;-58
2023/01/02 03:59:19;;;;;;;59.73;7.53;;;3.20;99.90;;;;;;5029044;28;20438;-58
2023/01/02 04:02:07;;;;;;;28.23;6.90;;;3.10;99.90;;;;;;5023899;28;20430;-58
2023/01/02 04:04:53;;;;;;;54.53;6.97;;;3.10;99.90;;;;;;5020238;28;20425;-59
2023/01/02 04:07:31;;;;;;;14.77;7.13;;;3.10;99.90;;;;;;5019912;28;20459;-58
2023/01/02 04:09:59;;;;;;;72.97;8.17;;;3.10;99.90;;;;;;5029275;28;20406;-59
2023/01/02 04:12:27;;;;;;;11.43;6.40;;;3.10;99.90;;;;;;5025052;28;20799;-59
2023/01/02 04:14:59;;;;;;;6.70;5.53;;;3.10;99.90;;;;;;5030721;28;20399;-59
2023/01/02 04:17:27;;;;;;;10.10;5.70;;;3.10;99.90;;;;;;5020939;28;21167;-59
2023/01/02 04:19:58;;;;;;;7.70;4.90;;;3.00;99.90;;;;;;5030781;28;20802;-59
2023/01/02 04:22:32;;;;;;;8.10;5.57;;;3.00;99.90;;;;;;5026603;28;20480;-58
2023/01/02 04:25:09;;;;;;;8.77;5.60;;;3.00;99.90;;;;;;5019471;28;20410;-58
2023/01/02 04:27:54;;;;;;;8.63;5.20;;;3.10;99.90;;;;;;5018180;28;21281;-58
2023/01/02 04:30:19;;;;;;;7.07;6.13;;;3.10;99.90;;;;;;5024592;28;20969;-58
2023/01/02 04:32:46;;;;;;;7.33;5.70;;;3.10;99.90;;;;;;5022588;28;20427;-60
2023/01/02 04:35:23;;;;;;;10.70;6.47;;;3.10;99.90;;;;;;5019846;28;20230;-59
2023/01/02 04:37:48;;;;;;;32.87;6.73;;;3.00;99.90;;;;;;5021799;28;20935;-58
2023/01/02 04:40:17;;;;;;;6.67;5.30;;;3.00;99.90;;;;;;5015916;28;20445;-59
2023/01/02 04:42:42;;;;;;;11.20;4.30;;;3.00;99.90;;;;;;5023829;28;20429;-58
2023/01/02 04:45:08;;;;;;;25.97;4.80;;;3.00;99.90;;;;;;5025100;28;20441;-58
2023/01/02 04:47:34;;;;;;;9.83;4.30;;;3.00;99.90;;;;;;5030480;28;20628;-59
2023/01/02 04:50:00;;;;;;;4.47;4.07;;;2.90;99.90;;;;;;5023763;28;20426;-58
2023/01/02 04:52:26;;;;;;;5.97;4.57;;;2.90;99.90;;;;;;5024966;28;20183;-59
2023/01/02 04:54:52;;;;;;;6.00;5.27;;;2.90;99.90;;;;;;5030220;28;20550;-59
2023/01/02 04:57:17;;;;;;;5.40;4.90;;;2.90;99.90;;;;;;5006860;28;20445;-58
2023/01/02 04:59:43;;;;;;;6.70;5.27;;;2.90;99.90;;;;;;5016432;28;20180;-59
2023/01/02 05:02:09;;;;;;;8.37;6.30;;;2.90;99.90;;;;;;5028041;28;20190;-59
2023/01/02 05:04:34;;;;;;;10.23;6.80;;;2.90;99.90;;;;;;5019876;28;20179;-59
2023/01/02 05:07:01;;;;;;;6.30;5.70;;;2.90;99.90;;;;;;5019124;28;20723;-59
2023/01/02 05:09:27;;;;;;;6.60;4.77;;;3.00;99.90;;;;;;5022853;28;20215;-58
2023/01/02 05:11:53;;;;;;;5.37;4.43;;;3.00;99.90;;;;;;5020966;28;20558;-58
2023/01/02 05:14:18;;;;;;;5.90;4.87;;;3.00;99.90;;;;;;5020708;28;20706;-60
2023/01/02 05:16:44;;;;;;;6.47;4.50;;;3.00;99.90;;;;;;5020120;28;20195;-58
2023/01/02 05:19:10;;;;;;;7.07;4.77;;;3.00;99.90;;;;;;5022362;28;20181;-58
2023/01/02 05:24:20;;;;;;;7.03;4.53;;;3.00;99.90;;;;;;5014661;28;20445;-59
2023/01/02 05:26:46;;;;;;;6.23;4.57;;;3.00;99.90;;;;;;5020697;28;20456;-58
2023/01/02 05:29:11;;;;;;;6.27;5.13;;;3.00;99.90;;;;;;5014368;28;20918;-59
2023/01/02 05:31:37;;;;;;;6.20;5.13;;;3.00;99.90;;;;;;5013792;28;20176;-58
2023/01/02 05:34:02;;;;;;;8.03;5.70;;;3.00;99.90;;;;;;5016870;28;20188;-59
2023/01/02 05:36:28;;;;;;;7.43;6.00;;;3.00;99.90;;;;;;5015023;28;20954;-59
2023/01/02 05:38:54;;;;;;;7.13;5.30;;;2.90;99.90;;;;;;5010755;28;20645;-59
2023/01/02 05:41:21;;;;;;;4.70;4.30;;;2.90;99.90;;;;;;5019930;28;20180;-59
2023/01/02 05:43:47;;;;;;;4.37;3.90;;;2.90;99.90;;;;;;5020616;28;20441;-58
2023/01/02 05:46:17;;;;;;;5.57;4.90;;;2.90;99.90;;;;;;5028828;28;20468;-59
2023/01/02 05:48:44;;;;;;;6.57;5.30;;;2.90;99.90;;;;;;5024713;28;20200;-59
2023/01/02 05:51:13;;;;;;;5.80;4.90;;;2.90;99.90;;;;;;5019154;28;20433;-60
2023/01/02 05:53:39;;;;;;;5.63;4.80;;;2.90;99.90;;;;;;5026643;28;20426;-60
2023/01/02 05:56:12;;;;;;;6.40;4.87;;;2.90;99.90;;;;;;5023042;28;20459;-59
2023/01/02 05:58:41;;;;;;;8.47;6.10;;;2.90;99.90;;;;;;5027147;28;20549;-59
2023/01/02 06:01:07;;;;;;;9.40;5.87;;;2.90;99.90;;;;;;5025186;28;20463;-58
2023/01/02 06:03:33;;;;;;;5.70;5.00;;;2.90;99.90;;;;;;5022006;28;20874;-60
2023/01/02 06:06:07;;;;;;;7.20;5.70;;;2.90;99.90;;;;;;5025387;28;20459;-59
2023/01/02 06:08:33;;;;;;;8.50;5.87;;;2.90;99.90;;;;;;5030456;28;20204;-59
2023/01/02 06:10:59;;;;;;;8.00;6.07;;;2.90;99.90;;;;;;5023681;28;20488;-59
2023/01/02 06:13:27;;;;;;;8.30;6.47;;;2.90;99.90;;;;;;5031292;28;20440;-58
2023/01/02 06:15:54;;;;;;;8.17;6.23;;;2.90;99.90;;;;;;5028804;28;20449;-58
2023/01/02 06:18:20;;;;;;;8.10;5.90;;;3.00;99.90;;;;;;5027514;28;20438;-59
2023/01/02 06:20:46;;;;;;;8.60;6.60;;;3.00;99.90;;;;;;5023343;28;20495;-59
2023/01/02 06:23:11;;;;;;;10.23;7.30;;;3.00;99.90;;;;;;5025835;28;20543;-59
2023/01/02 06:25:37;;;;;;;10.97;7.70;;;3.00;99.90;;;;;;5018018;28;20218;-58
2023/01/02 06:28:02;;;;;;;12.53;7.77;;;3.00;99.90;;;;;;5009058;28;20678;-59
2023/01/02 06:30:28;;;;;;;12.27;7.97;;;3.00;99.90;;;;;;5028611;28;20237;-59
2023/01/02 06:32:55;;;;;;;10.17;7.80;;;3.00;99.90;;;;;;5025202;28;20179;-59
2023/01/02 06:35:21;;;;;;;11.50;7.13;;;3.00;99.90;;;;;;5020199;28;20207;-58
2023/01/02 06:37:46;;;;;;;10.83;6.77;;;3.00;99.90;;;;;;5018958;28;20490;-58
2023/01/02 06:40:12;;;;;;;7.73;6.80;;;3.00;99.90;;;;;;5016113;28;20211;-59
2023/01/02 06:42:37;;;;;;;12.50;7.20;;;3.00;99.90;;;;;;5022517;28;20194;-59
2023/01/02 06:45:04;;;;;;;11.03;7.73;;;3.00;99.90;;;;;;5025031;28;20670;-59
2023/01/02 06:47:29;;;;;;;10.37;7.80;;;3.00;99.90;;;;;;5019878;28;20198;-58
2023/01/02 06:49:55;;;;;;;9.93;7.73;;;3.00;99.90;;;;;;5018931;28;20931;-59
2023/01/02 06:52:21;;;;;;;11.60;8.03;;;3.00;99.90;;;;;;5017026;28;20191;-59
2023/01/02 06:54:47;;;;;;;11.87;7.60;;;3.00;99.90;;;;;;5018691;28;20178;-62
2023/01/02 06:57:12;;;;;;;10.37;7.30;;;3.00;99.90;;;;;;5019961;28;20462;-60
2023/01/02 06:59:38;;;;;;;9.57;6.97;;;3.00;99.90;;;;;;5022202;28;20261;-59
2023/01/02 07:02:04;;;;;;;15.53;7.40;;;3.00;99.90;;;;;;5020624;28;20188;-58
2023/01/02 07:04:30;;;;;;;11.30;7.27;;;3.00;99.90;;;;;;5016542;28;20246;-58
2023/01/02 07:06:55;;;;;;;10.17;7.40;;;3.00;99.90;;;;;;5010489;28;20210;-58
2023/01/02 07:09:21;;;;;;;10.70;8.00;;;3.00;99.90;;;;;;5013371;28;20459;-59
2023/01/02 07:11:46;;;;;;;13.67;7.90;;;3.00;99.90;;;;;;5020652;28;20170;-59
2023/01/02 07:14:12;;;;;;;10.67;7.90;;;3.00;99.90;;;;;;5016359;28;20216;-59
2023/01/02 07:16:38;;;;;;;10.90;7.33;;;3.00;99.90;;;;;;5016678;28;20573;-59
2023/01/02 07:19:03;;;;;;;10.93;7.87;;;3.00;99.90;;;;;;5019176;28;20204;-59
2023/01/02 07:21:29;;;;;;;15.70;8.57;;;3.00;99.90;;;;;;5013529;28;20241;-59
2023/01/02 07:23:55;;;;;;;15.70;10.17;;;3.00;99.90;;;;;;5009020;28;20183;-59
2023/01/02 07:26:20;;;;;;;16.17;9.80;;;3.10;99.90;;;;;;5009245;28;20691;-60
2023/01/02 07:28:46;;;;;;;14.60;9.90;;;3.10;99.90;;;;;;5010952;28;20219;-60
2023/01/02 07:31:16;;;;;;;15.70;10.20;;;3.10;99.90;;;;;;5012283;28;20255;-60
2023/01/02 07:33:42;;;;;;;14.80;9.50;;;3.10;99.90;;;;;;5012777;28;21318;-59
2023/01/02 07:36:11;;;;;;;16.27;10.70;;;3.10;99.90;;;;;;5017844;28;20460;-59
2023/01/02 07:38:38;;;;;;;18.37;11.80;;;3.10;99.90;;;;;;5012446;28;20176;-59
2023/01/02 07:41:04;;;;;;;16.77;10.67;;;3.20;99.90;;;;;;5013020;28;20456;-59
2023/01/02 07:43:29;;;;;;;15.40;10.57;;;3.20;99.90;;;;;;5007968;28;20431;-59
2023/01/02 07:46:02;;;;;;;14.07;9.57;;;3.20;99.90;;;;;;5013898;28;20474;-59
2023/01/02 07:48:29;;;;;;;14.30;9.50;;;3.20;99.90;;;;;;5014589;28;20203;-59
2023/01/02 07:51:02;;;;;;;13.40;9.43;;;3.30;99.90;;;;;;5018768;28;20484;-60
2023/01/02 07:53:28;;;;;;;16.70;10.60;;;3.30;99.90;;;;;;5016605;28;20920;-59
2023/01/02 07:55:55;;;;;;;15.27;10.33;;;3.20;99.90;;;;;;5011741;28;20543;-59
2023/01/02 07:58:20;;;;;;;19.77;10.87;;;3.30;99.90;;;;;;5017232;28;20190;-59
2023/01/02 08:00:46;;;;;;;17.07;10.50;;;3.30;99.90;;;;;;5016621;28;20811;-59
2023/01/02 08:03:12;;;;;;;15.43;10.33;;;3.30;99.90;;;;;;5020642;28;20188;-60
2023/01/02 08:05:37;;;;;;;16.53;9.87;;;3.30;99.90;;;;;;5020413;28;20211;-59
2023/01/02 08:08:03;;;;;;;19.27;12.63;;;3.40;99.90;;;;;;5018923;28;20751;-62
2023/01/02 08:10:28;;;;;;;20.53;11.70;;;3.40;99.90;;;;;;5022206;28;20198;-59
2023/01/02 08:12:56;;;;;;;16.93;11.27;;;3.50;99.90;;;;;;5016517;28;20183;-60
2023/01/02 08:15:22;;;;;;;19.20;12.30;;;3.50;99.90;;;;;;5021815;28;20195;-61
2023/01/02 08:17:47;;;;;;;18.80;10.53;;;3.50;99.90;;;;;;5019053;28;20426;-58
2023/01/02 08:20:13;;;;;;;32.60;18.27;;;3.60;99.90;;;;;;5015570;28;20426;-59
2023/01/02 08:22:39;;;;;;;25.67;14.83;;;3.70;99.90;;;;;;5018745;28;20235;-59
2023/01/02 08:25:05;;;;;;;24.27;14.13;;;3.70;99.90;;;;;;5018357;28;20168;-60
2023/01/02 08:27:31;;;;;;;20.27;12.80;;;3.70;99.90;;;;;;5015963;28;20957;-60
2023/01/02 08:29:57;;;;;;;22.43;15.30;;;3.70;99.90;;;;;;5013231;28;20909;-61
2023/01/02 08:32:22;;;;;;;18.70;12.67;;;3.70;99.90;;;;;;5020167;28;21013;-61
2023/01/02 08:34:48;;;;;;;21.17;13.83;;;3.70;99.90;;;;;;5014983;28;20172;-60
2023/01/02 08:37:14;;;;;;;18.50;12.43;;;3.70;99.90;;;;;;5018483;28;20196;-61
2023/01/02 08:39:39;;;;;;;20.33;13.30;;;3.70;99.90;;;;;;5017356;28;20179;-62
2023/01/02 08:42:05;;;;;;;20.63;14.30;;;3.80;99.90;;;;;;5014750;28;20180;-61
2023/01/02 08:44:32;;;;;;;22.30;13.13;;;3.80;99.90;;;;;;5013900;28;20230;-61
2023/01/02 08:46:58;;;;;;;18.67;12.87;;;3.80;99.90;;;;;;5014646;28;20207;-61
2023/01/02 08:49:23;;;;;;;16.77;11.10;;;3.90;99.90;;;;;;5015742;28;20458;-60
2023/01/02 08:51:49;;;;;;;16.53;10.77;;;3.90;99.90;;;;;;5020213;28;20180;-61
2023/01/02 08:54:14;;;;;;;19.43;13.10;;;3.90;99.90;;;;;;5014909;28;20170;-60
2023/01/02 08:56:41;;;;;;;23.13;14.73;;;4.00;99.90;;;;;;5016998;28;20237;-59
2023/01/02 08:59:09;;;;;;;18.73;11.73;;;4.00;99.90;;;;;;5020251;28;20182;-59
2023/01/02 09:01:36;;;;;;;18.97;13.33;;;4.00;99.90;;;;;;5018510;28;20498;-61
2023/01/02 09:04:03;;;;;;;20.70;12.60;;;4.00;99.90;;;;;;5019530;28;20470;-59
2023/01/02 09:06:30;;;;;;;20.53;13.67;;;4.10;99.90;;;;;;5016546;28;20457;-59
2023/01/02 09:08:57;;;;;;;19.53;14.40;;;4.10;99.90;;;;;;5015485;28;20454;-59
2023/01/02 09:11:33;;;;;;;19.43;13.33;;;4.20;99.90;;;;;;5014471;28;20805;-60
2023/01/02 09:13:59;;;;;;;18.77;11.83;;;4.20;99.90;;;;;;5010275;28;20423;-61
2023/01/02 09:16:25;;;;;;;20.67;12.43;;;4.20;99.90;;;;;;5012734;28;20450;-60
2023/01/02 09:18:53;;;;;;;16.10;10.80;;;4.30;99.90;;;;;;5023134;28;20441;-60
2023/01/02 09:21:19;;;;;;;18.30;10.90;;;4.30;99.90;;;;;;5014188;28;20458;-60
2023/01/02 09:23:44;;;;;;;18.27;13.03;;;4.30;99.90;;;;;;5012864;28;20502;-59
2023/01/02 09:26:11;;;;;;;17.33;11.90;;;4.40;99.90;;;;;;5015632;28;20282;-61
2023/01/02 09:28:37;;;;;;;18.70;11.80;;;4.40;99.90;;;;;;5016318;28;20191;-59
2023/01/02 09:31:05;;;;;;;15.90;10.90;;;4.50;99.90;;;;;;5018374;28;20892;-60
2023/01/02 09:33:30;;;;;;;17.57;12.53;;;4.50;99.90;;;;;;5012114;28;20235;-61
2023/01/02 09:36:00;;;;;;;16.00;10.23;;;4.50;99.90;;;;;;5010886;28;20450;-60
2023/01/02 09:38:26;;;;;;;14.43;9.90;;;4.50;99.90;;;;;;5016853;28;20318;-60
2023/01/02 09:40:53;;;;;;;13.70;9.70;;;4.50;99.90;;;;;;5018998;28;20497;-59
2023/01/02 09:43:32;;;;;;;14.03;10.27;;;4.60;99.90;;;;;;5019802;28;20180;-60
2023/01/02 09:46:00;;;;;;;16.83;10.90;;;4.60;99.90;;;;;;5014898;28;20964;-60
2023/01/02 09:48:31;;;;;;;13.90;10.27;;;4.70;99.90;;;;;;5016159;28;20458;-61
2023/01/02 09:50:57;;;;;;;16.83;11.00;;;4.80;99.90;;;;;;5017408;28;20426;-59
2023/01/02 09:53:24;;;;;;;16.93;10.27;;;4.80;99.90;;;;;;5017073;28;20764;-60
2023/01/02 09:56:09;;;;;;;15.50;10.90;;;4.80;99.90;;;;;;5013526;28;20202;-61
2023/01/02 09:58:53;;;;;;;16.93;10.70;;;4.80;99.90;;;;;;5015491;28;20446;-60
2023/01/02 10:01:31;;;;;;;16.13;10.40;;;4.90;99.90;;;;;;5016518;28;20518;-61
2023/01/02 10:04:16;;;;;;;20.70;10.87;;;4.90;99.90;;;;;;5011512;28;20430;-60
2023/01/02 10:07:05;;;;;;;21.23;9.87;;;5.00;99.90;;;;;;5011179;28;20447;-61
2023/01/02 10:09:59;;;;;;;16.50;10.43;;;5.00;99.90;;;;;;5013176;28;20462;-61
2023/01/02 10:12:39;;;;;;;14.67;10.37;;;5.10;99.90;;;;;;5008527;28;20563;-63
2023/01/02 10:15:12;;;;;;;18.30;10.00;;;5.10;99.90;;;;;;5008191;28;20437;-61
2023/01/02 10:17:45;;;;;;;17.00;11.33;;;5.10;99.90;;;;;;5010443;28;20553;-62
2023/01/02 10:20:26;;;;;;;18.60;11.47;;;5.20;99.90;;;;;;5012739;28;20430;-63
2023/01/02 10:23:05;;;;;;;23.57;10.33;;;5.20;99.90;;;;;;5015394;28;20426;-62
2023/01/02 10:25:46;;;;;;;17.80;10.10;;;5.30;99.90;;;;;;5013415;28;20925;-61
2023/01/02 10:28:21;;;;;;;13.63;7.87;;;5.40;99.90;;;;;;5017258;28;20458;-63
2023/01/02 10:30:56;;;;;;;13.53;8.33;;;5.40;99.90;;;;;;5026659;28;20433;-60
2023/01/02 10:33:42;;;;;;;12.20;7.50;;;5.40;99.90;;;;;;5018446;28;20452;-62
2023/01/02 10:36:21;;;;;;;10.67;7.20;;;5.50;99.90;;;;;;5012155;28;20454;-61
2023/01/02 10:38:46;;;;;;;10.30;7.67;;;5.60;99.90;;;;;;5016044;28;20505;-58
2023/01/02 10:41:12;;;;;;;12.93;7.87;;;5.60;99.90;;;;;;5012761;28;20910;-58
2023/01/02 10:43:38;;;;;;;13.67;7.07;;;5.70;99.90;;;;;;5008825;28;20236;-59
2023/01/02 10:46:04;;;;;;;12.00;8.20;;;5.70;99.90;;;;;;5016673;28;20204;-59
2023/01/02 10:48:33;;;;;;;17.83;8.50;;;5.80;99.90;;;;;;5019913;28;20203;-58
2023/01/02 10:51:06;;;;;;;14.33;7.40;;;5.90;99.90;;;;;;5017705;28;20711;-58
2023/01/02 10:53:36;;;;;;;11.97;7.53;;;6.00;99.90;;;;;;5019427;28;20564;-57
2023/01/02 10:56:14;;;;;;;13.90;7.87;;;6.20;99.90;;;;;;5016544;28;20842;-58
2023/01/02 10:58:46;;;;;;;12.00;8.20;;;6.30;99.90;;;;;;5020693;28;20426;-58
2023/01/02 11:01:17;;;;;;;13.20;9.20;;;6.40;99.90;;;;;;5017036;28;20422;-58
2023/01/02 11:03:44;;;;;;;16.93;8.40;;;6.50;99.90;;;;;;5020261;28;20449;-58
2023/01/02 11:06:21;;;;;;;14.00;9.50;;;6.70;99.90;;;;;;5017748;28;20977;-59
2023/01/02 11:08:56;;;;;;;17.90;9.37;;;6.80;99.90;;;;;;5012001;28;20470;-60
2023/01/02 11:11:24;;;;;;;13.03;9.10;;;6.90;99.90;;;;;;5020200;28;20430;-60
2023/01/02 11:13:53;;;;;;;13.20;9.47;;;7.10;99.90;;;;;;5014111;28;20550;-61
2023/01/02 11:16:21;;;;;;;16.57;10.47;;;7.20;99.90;;;;;;5014292;28;20447;-60
2023/01/02 11:18:57;;;;;;;13.30;9.53;;;7.20;99.90;;;;;;5016567;28;20437;-61
2023/01/02 11:21:30;;;;;;;21.00;9.17;;;7.40;99.90;;;;;;5019506;28;20910;-61
2023/01/02 11:24:24;;;;;;;15.53;9.10;;;7.50;99.90;;;;;;5013731;28;20443;-61
2023/01/02 11:26:50;;;;;;;21.00;10.30;;;7.70;99.90;;;;;;5016347;28;20446;-61
2023/01/02 11:29:30;;;;;;;15.63;9.70;;;7.80;99.90;;;;;;5015469;28;20454;-58
2023/01/02 11:31:59;;;;;;;14.40;10.17;;;8.00;99.90;;;;;;5013716;28;20438;-60
2023/01/02 11:34:31;;;;;;;14.07;9.20;;;8.10;99.90;;;;;;5008208;28;20434;-59
2023/01/02 11:37:11;;;;;;;18.03;9.73;;;8.20;99.90;;;;;;5021055;28;20446;-58
2023/01/02 11:39:38;;;;;;;23.53;10.43;;;8.30;99.90;;;;;;5015627;28;20442;-59
2023/01/02 11:45:17;;;;;;;13.07;9.53;;;8.50;99.90;;;;;;4982906;28;20558;-58
2023/01/02 11:47:59;;;;;;;15.50;10.07;;;8.60;99.90;;;;;;5012669;28;20410;-58
2023/01/02 11:50:30;;;;;;;13.70;9.90;;;8.60;99.90;;;;;;5024284;28;20509;-58
2023/01/02 11:53:11;;;;;;;15.10;10.00;;;8.60;99.90;;;;;;5021010;28;20411;-58
2023/01/02 11:55:52;;;;;;;17.10;10.83;;;8.60;99.90;;;;;;5019631;28;20445;-58
2023/01/02 11:58:37;;;;;;;17.50;11.40;;;8.60;99.90;;;;;;5021724;28;20422;-58
2023/01/02 12:01:03;;;;;;;21.97;12.40;;;8.60;99.90;;;;;;5018908;28;20471;-58
2023/01/02 12:03:31;;;;;;;22.23;13.30;;;8.60;99.90;;;;;;5025980;28;20522;-58
2023/01/02 12:06:21;;;;;;;26.73;14.40;;;8.60;99.90;;;;;;5022188;28;20548;-59
2023/01/02 12:09:02;;;;;;;25.30;12.60;;;8.60;99.90;;;;;;5022507;28;20462;-58
2023/01/02 12:11:40;;;;;;;24.17;12.53;;;8.60;99.90;;;;;;5023132;28;20436;-58
2023/01/02 12:14:23;;;;;;;22.47;11.83;;;8.70;99.90;;;;;;5024826;28;20469;-59
2023/01/02 12:16:58;;;;;;;16.37;9.50;;;8.70;99.90;;;;;;5022256;28;20835;-58
2023/01/02 12:19:42;;;;;;;24.30;12.07;;;8.80;99.90;;;;;;5021405;28;20423;-58
2023/01/02 12:22:45;;;;;;;25.20;12.70;;;8.90;99.90;;;;;;5022315;28;20422;-58
2023/01/02 12:25:33;;;;;;;22.53;11.40;;;9.00;99.90;;;;;;5023963;28;20448;-58
2023/01/02 12:28:23;;;;;;;21.50;11.37;;;9.10;99.90;;;;;;5010854;28;20808;-60
2023/01/02 12:31:07;;;;;;;17.53;11.80;;;9.20;99.90;;;;;;5020537;28;20435;-58
2023/01/02 12:33:45;;;;;;;15.60;10.30;;;9.30;99.90;;;;;;5024811;28;20535;-59
2023/01/02 12:36:38;;;;;;;23.20;10.80;;;9.40;99.90;;;;;;5020815;28;20450;-58
2023/01/02 12:39:30;;;;;;;17.33;9.70;;;9.50;99.90;;;;;;5020051;28;20523;-59
2023/01/02 12:41:56;;;;;;;17.87;9.80;;;9.50;99.90;;;;;;5021515;28;20427;-58
2023/01/02 12:44:24;;;;;;;16.53;9.87;;;9.60;99.90;;;;;;5019683;28;20439;-59
2023/01/02 12:47:08;;;;;;;14.40;9.20;;;9.60;99.90;;;;;;5020682;28;20814;-59
2023/01/02 12:49:55;;;;;;;12.80;7.70;;;9.70;99.90;;;;;;5024552;28;20544;-58
2023/01/02 12:52:26;;;;;;;11.77;4.77;;;9.70;99.90;;;;;;5020746;28;20465;-59
2023/01/02 12:55:31;;;;;;;10.17;5.03;;;9.80;99.90;;;;;;5021829;28;20438;-58
2023/01/02 12:58:17;;;;;;;8.90;4.70;;;10.00;99.90;;;;;;5019852;28;20453;-59
2023/01/02 13:01:02;;;;;;;13.20;5.13;;;10.10;99.90;;;;;;5021817;28;20461;-59
2023/01/02 13:03:30;;;;;;;15.80;4.60;;;10.30;99.90;;;;;;5036417;28;20438;-59
2023/01/02 13:06:15;;;;;;;11.63;4.20;;;10.50;99.90;;;;;;5021547;28;20435;-59
2023/01/02 13:08:49;;;;;;;8.23;4.03;;;10.70;99.90;;;;;;5019044;28;20459;-59
2023/01/02 13:11:48;;;;;;;9.40;3.67;;;10.90;99.90;;;;;;5023221;28;20502;-58
2023/01/02 13:14:18;;;;;;;11.40;4.10;;;11.00;99.90;;;;;;4989156;28;21038;-59
2023/01/02 13:16:54;;;;;;;8.90;4.17;;;11.20;99.90;;;;;;5020858;28;20484;-59